Decoded Metar for WAMM (MANADO in INDONESIA) (IATA:MDC) | Meteo·Mobile Aviation Weather
aviador You're here:

WAMM Decoded Metar

MANADO in INDONESIA
Report Time2018-10-18 08:30:00
UTC Time2018-10-18 08:54:59
Flight Rules vfr VFR
Wind010° at 04 kt
W.Decomp.*RWY 36: 4.0 kt HW 0.6 kt RCW
W.Rank010° ranks 18
Current wind is below 010° avg. (4.1)
Visibility9999 m
Phenomena:N/A
Clouds:Few 022 Hf
Expected CloudBase > 1,200 ft AGL from Temp-Dew spread
CeilingNone
Temp27°C (ISA +13)
Dew Point24°C (84% RH)
Heat Index30.1°C
QNH1009 hPa
Density Alt2,234 ft
Elevation262 ft
Report Wrong Elevation
Raw Report
METAR WAMM 180830Z 01004KT 9999 FEW022 27/24 Q1009 NOSIG=

Extra information for WAMM:More info

Metar Taf Metar & Taf Last 4 Metars F.Rules Stats Wind Profile Meteogram Temp Stats Airport Information Weather charts Add Link Nearby VenuesMetar ALERT Operation Metar Decoded Social comments